Time;durP1;ratioP1;P1;durP2;ratioP2;P2;SDS_P1;SDS_P2;PMS_P1;PMS_P2;Temp;Humidity;BMP_temperature;BMP_pressure;BME280_temperature;BME280_humidity;BME280_pressure;Samples;Min_cycle;Max_cycle;Signal;HPM_P1;HPM_P2
2021/01/24 00:00:11;;;;;;;13.80;9.45;;;;;;;;;;5038310;28;20174;-89
2021/01/24 00:02:37;;;;;;;12.52;8.73;;;;;;;;;;5031846;28;20766;-90
2021/01/24 00:05:03;;;;;;;13.38;8.45;;;;;;;;;;5035595;28;20185;-89
2021/01/24 00:07:29;;;;;;;10.50;7.78;;;;;;;;;;5040992;28;20182;-85
2021/01/24 00:09:55;;;;;;;11.65;8.63;;;;;;;;;;5036560;28;20208;-88
2021/01/24 00:12:21;;;;;;;13.00;8.45;;;;;;;;;;5038891;28;20186;-89
2021/01/24 00:14:47;;;;;;;12.27;8.27;;;;;;;;;;5050668;28;20234;-89
2021/01/24 00:17:13;;;;;;;12.23;8.23;;;;;;;;;;5048697;28;20201;-88
2021/01/24 00:19:39;;;;;;;12.00;8.40;;;;;;;;;;5043861;28;20231;-89
2021/01/24 00:22:05;;;;;;;11.98;7.82;;;;;;;;;;5031629;28;20186;-89
2021/01/24 00:24:31;;;;;;;10.65;8.15;;;;;;;;;;5035298;28;20218;-89
2021/01/24 00:26:57;;;;;;;10.15;7.32;;;;;;;;;;5050439;28;20194;-88
2021/01/24 00:29:23;;;;;;;9.73;6.40;;;;;;;;;;5050236;28;20189;-89
2021/01/24 00:31:49;;;;;;;9.70;6.45;;;;;;;;;;5048786;28;20540;-89
2021/01/24 00:34:15;;;;;;;9.45;7.65;;;;;;;;;;5045324;28;20237;-88
2021/01/24 00:36:41;;;;;;;12.63;6.38;;;;;;;;;;5038045;28;20198;-89
2021/01/24 00:39:10;;;;;;;8.07;6.55;;;;;;;;;;5028236;28;20571;-88
2021/01/24 00:41:36;;;;;;;9.85;6.85;;;;;;;;;;5049704;28;20279;-88
2021/01/24 00:44:02;;;;;;;10.13;7.00;;;;;;;;;;5030139;28;20183;-88
2021/01/24 00:46:28;;;;;;;7.25;6.55;;;;;;;;;;5043255;28;20174;-88
2021/01/24 00:48:54;;;;;;;12.00;6.80;;;;;;;;;;5043065;28;20241;-88
2021/01/24 00:51:20;;;;;;;8.98;6.00;;;;;;;;;;5037634;28;20167;-88
2021/01/24 00:53:46;;;;;;;7.80;5.78;;;;;;;;;;5053564;28;20185;-88
2021/01/24 00:56:12;;;;;;;8.88;5.88;;;;;;;;;;5055813;28;20254;-88
2021/01/24 00:58:38;;;;;;;11.50;7.05;;;;;;;;;;5046064;28;20178;-88
2021/01/24 01:01:04;;;;;;;8.80;4.97;;;;;;;;;;5041175;28;20198;-88
2021/01/24 01:03:30;;;;;;;6.30;5.70;;;;;;;;;;5041400;28;20500;-88
2021/01/24 01:05:56;;;;;;;9.85;5.85;;;;;;;;;;5051087;28;20210;-89
2021/01/24 01:08:22;;;;;;;8.68;6.20;;;;;;;;;;5038872;28;20324;-88
2021/01/24 01:10:48;;;;;;;7.47;5.57;;;;;;;;;;5039005;28;20198;-87
2021/01/24 01:13:14;;;;;;;10.43;6.65;;;;;;;;;;5034545;28;20762;-88
2021/01/24 01:15:40;;;;;;;8.35;5.20;;;;;;;;;;5045537;28;20494;-88
2021/01/24 01:18:06;;;;;;;7.25;5.18;;;;;;;;;;5038210;28;20190;-88
2021/01/24 01:20:32;;;;;;;10.73;5.90;;;;;;;;;;5040059;28;20193;-88
2021/01/24 01:22:58;;;;;;;7.10;5.65;;;;;;;;;;5037830;28;20655;-88
2021/01/24 01:25:24;;;;;;;13.25;6.03;;;;;;;;;;5035686;28;20197;-88
2021/01/24 01:27:50;;;;;;;9.77;5.80;;;;;;;;;;5033710;28;20185;-87
2021/01/24 01:30:16;;;;;;;6.60;5.20;;;;;;;;;;5040719;28;20162;-88
2021/01/24 01:32:42;;;;;;;10.52;5.80;;;;;;;;;;5038815;28;20255;-88
2021/01/24 01:35:08;;;;;;;9.50;5.55;;;;;;;;;;5013850;28;20204;-87
2021/01/24 01:37:35;;;;;;;10.32;6.40;;;;;;;;;;5030114;28;20283;-88
2021/01/24 01:40:01;;;;;;;9.75;6.20;;;;;;;;;;5024341;28;20245;-87
2021/01/24 01:42:27;;;;;;;8.60;5.65;;;;;;;;;;5021068;28;20175;-88
2021/01/24 01:44:53;;;;;;;8.00;5.97;;;;;;;;;;5033296;28;20187;-88
2021/01/24 01:47:21;;;;;;;7.50;5.55;;;;;;;;;;5016087;28;20517;-88
2021/01/24 01:49:48;;;;;;;9.95;6.80;;;;;;;;;;5024689;28;20193;-86
2021/01/24 01:52:14;;;;;;;7.85;5.63;;;;;;;;;;5030285;28;20606;-87
2021/01/24 01:54:43;;;;;;;10.57;5.15;;;;;;;;;;5011369;28;20214;-87
2021/01/24 01:57:08;;;;;;;6.63;6.00;;;;;;;;;;5018840;28;20201;-88
2021/01/24 01:59:34;;;;;;;12.55;5.90;;;;;;;;;;5033968;28;20193;-87
2021/01/24 02:02:13;;;;;;;10.23;4.50;;;;;;;;;;5022030;28;20185;-85
2021/01/24 02:04:49;;;;;;;8.70;5.38;;;;;;;;;;5028843;28;20191;-87
2021/01/24 02:07:26;;;;;;;8.60;5.55;;;;;;;;;;5023026;28;20201;-85
2021/01/24 02:09:57;;;;;;;9.13;5.68;;;;;;;;;;5016339;28;20253;-87
2021/01/24 02:12:26;;;;;;;7.13;5.30;;;;;;;;;;5023156;28;20181;-87
2021/01/24 02:15:00;;;;;;;6.47;4.18;;;;;;;;;;5022579;28;20633;-88
2021/01/24 02:17:29;;;;;;;10.45;4.70;;;;;;;;;;5042110;28;20176;-87
2021/01/24 02:19:58;;;;;;;7.20;4.30;;;;;;;;;;5033508;28;20193;-88
2021/01/24 02:22:25;;;;;;;5.72;4.38;;;;;;;;;;5031137;28;20656;-88
2021/01/24 02:24:56;;;;;;;8.10;6.35;;;;;;;;;;5033839;28;20181;-87
2021/01/24 02:27:42;;;;;;;8.88;4.78;;;;;;;;;;5037370;28;20178;-86
2021/01/24 02:30:20;;;;;;;6.20;5.03;;;;;;;;;;5039018;28;20193;-87
2021/01/24 02:32:47;;;;;;;6.05;4.60;;;;;;;;;;5040451;28;20240;-87
2021/01/24 02:35:14;;;;;;;8.00;4.85;;;;;;;;;;5035586;28;20256;-87
2021/01/24 02:37:41;;;;;;;5.50;4.35;;;;;;;;;;5031023;28;20174;-87
2021/01/24 02:40:09;;;;;;;6.55;4.05;;;;;;;;;;5026829;28;20269;-87
2021/01/24 02:42:35;;;;;;;5.88;4.55;;;;;;;;;;5027816;28;20249;-87
2021/01/24 02:45:02;;;;;;;4.82;4.10;;;;;;;;;;5041639;28;20245;-87
2021/01/24 02:47:29;;;;;;;4.60;4.20;;;;;;;;;;5038809;28;20194;-86
2021/01/24 02:49:55;;;;;;;4.22;3.83;;;;;;;;;;5042557;28;20185;-87
2021/01/24 02:52:21;;;;;;;9.18;4.60;;;;;;;;;;5032182;28;20186;-87
2021/01/24 02:54:47;;;;;;;5.00;4.25;;;;;;;;;;5020120;28;20202;-87
2021/01/24 02:57:13;;;;;;;8.20;4.10;;;;;;;;;;5025869;28;20182;-87
2021/01/24 02:59:40;;;;;;;5.85;4.00;;;;;;;;;;5041199;28;20229;-87
2021/01/24 03:02:06;;;;;;;7.78;4.45;;;;;;;;;;5022041;28;20284;-87
2021/01/24 03:04:32;;;;;;;8.93;4.13;;;;;;;;;;5025196;28;20186;-87
2021/01/24 03:06:58;;;;;;;5.82;4.20;;;;;;;;;;5028354;28;20185;-88
2021/01/24 03:09:24;;;;;;;6.32;3.75;;;;;;;;;;5036733;28;20718;-88
2021/01/24 03:11:51;;;;;;;4.18;3.45;;;;;;;;;;5036624;28;20220;-87
2021/01/24 03:14:22;;;;;;;6.20;4.15;;;;;;;;;;5017673;28;20189;-87
2021/01/24 03:16:49;;;;;;;9.48;4.57;;;;;;;;;;5025791;28;20244;-87
2021/01/24 03:19:17;;;;;;;5.63;4.60;;;;;;;;;;5019580;28;20189;-87
2021/01/24 03:21:43;;;;;;;5.05;4.30;;;;;;;;;;5035690;28;20171;-88
2021/01/24 03:24:10;;;;;;;10.18;4.90;;;;;;;;;;5028841;28;20245;-88
2021/01/24 03:26:36;;;;;;;3.95;3.50;;;;;;;;;;5023120;28;20185;-87
2021/01/24 03:29:02;;;;;;;4.57;3.70;;;;;;;;;;5012170;28;20187;-87
2021/01/24 03:31:30;;;;;;;6.18;4.60;;;;;;;;;;5034229;28;20238;-85
2021/01/24 03:33:56;;;;;;;4.80;3.42;;;;;;;;;;5044057;28;20208;-87
2021/01/24 03:36:22;;;;;;;4.28;3.67;;;;;;;;;;5044220;28;20209;-87
2021/01/24 03:38:48;;;;;;;4.95;4.07;;;;;;;;;;5040583;28;20186;-87
2021/01/24 03:41:14;;;;;;;6.03;4.15;;;;;;;;;;5042352;28;20647;-86
2021/01/24 03:43:40;;;;;;;5.28;3.65;;;;;;;;;;5057064;28;20210;-86
2021/01/24 03:46:06;;;;;;;6.82;4.25;;;;;;;;;;5032434;28;20198;-87
2021/01/24 03:48:32;;;;;;;5.30;4.15;;;;;;;;;;5039265;28;20254;-87
2021/01/24 03:50:58;;;;;;;4.68;4.20;;;;;;;;;;5041064;28;20196;-88
2021/01/24 03:53:24;;;;;;;8.45;3.90;;;;;;;;;;5040108;28;20196;-88
2021/01/24 03:55:50;;;;;;;8.60;3.85;;;;;;;;;;5041865;28;20198;-86
2021/01/24 03:58:16;;;;;;;7.15;4.65;;;;;;;;;;5030783;28;20185;-86
2021/01/24 04:00:42;;;;;;;7.20;3.60;;;;;;;;;;5048953;28;20635;-87
2021/01/24 04:03:08;;;;;;;6.70;3.58;;;;;;;;;;5035513;28;20185;-87
2021/01/24 04:05:34;;;;;;;4.70;3.65;;;;;;;;;;5035927;28;20242;-87
2021/01/24 04:08:00;;;;;;;9.88;4.53;;;;;;;;;;5029673;28;20190;-87
2021/01/24 04:10:26;;;;;;;5.32;3.90;;;;;;;;;;5043810;28;20183;-87
2021/01/24 04:12:52;;;;;;;5.80;4.05;;;;;;;;;;5044819;28;20536;-87
2021/01/24 04:15:18;;;;;;;6.45;4.35;;;;;;;;;;5041321;28;20211;-87
2021/01/24 04:17:45;;;;;;;5.97;4.70;;;;;;;;;;5039677;28;20185;-87
2021/01/24 04:20:11;;;;;;;6.20;4.20;;;;;;;;;;5040639;28;20181;-88
2021/01/24 04:22:37;;;;;;;8.40;4.40;;;;;;;;;;5033028;28;20239;-88
2021/01/24 04:25:03;;;;;;;6.38;4.10;;;;;;;;;;5042366;28;20201;-87
2021/01/24 04:27:29;;;;;;;4.93;3.90;;;;;;;;;;5043668;28;20200;-88
2021/01/24 04:29:55;;;;;;;5.20;3.78;;;;;;;;;;5038678;28;20189;-87
2021/01/24 04:32:21;;;;;;;4.47;4.03;;;;;;;;;;5035017;28;20230;-88
2021/01/24 04:34:47;;;;;;;4.53;3.90;;;;;;;;;;5023620;28;20210;-86
2021/01/24 04:37:13;;;;;;;6.95;4.30;;;;;;;;;;5029512;28;20177;-86
2021/01/24 04:39:39;;;;;;;6.63;4.88;;;;;;;;;;5039115;28;20237;-88
2021/01/24 04:42:05;;;;;;;8.93;4.50;;;;;;;;;;5034223;28;20255;-88
2021/01/24 04:44:32;;;;;;;5.03;4.18;;;;;;;;;;5034800;28;20216;-88
2021/01/24 04:46:58;;;;;;;8.23;4.55;;;;;;;;;;5028389;28;20245;-88
2021/01/24 04:49:24;;;;;;;5.40;4.07;;;;;;;;;;5032201;28;20186;-87
2021/01/24 04:51:50;;;;;;;5.90;4.40;;;;;;;;;;5028712;28;20189;-88
2021/01/24 04:54:17;;;;;;;4.30;3.70;;;;;;;;;;5036116;28;20181;-88
2021/01/24 04:56:43;;;;;;;8.52;4.90;;;;;;;;;;5020312;28;20193;-88
2021/01/24 04:59:09;;;;;;;8.00;4.38;;;;;;;;;;5011191;28;20690;-87
2021/01/24 05:01:36;;;;;;;4.10;3.25;;;;;;;;;;5029133;28;20560;-88
2021/01/24 05:04:02;;;;;;;6.95;4.03;;;;;;;;;;5019454;28;20170;-87
2021/01/24 05:06:28;;;;;;;4.65;3.58;;;;;;;;;;5022597;28;20270;-88
2021/01/24 05:08:59;;;;;;;3.97;3.55;;;;;;;;;;5032077;28;20185;-88
2021/01/24 05:11:25;;;;;;;6.90;3.85;;;;;;;;;;5035432;28;20313;-85
2021/01/24 05:13:51;;;;;;;6.75;3.75;;;;;;;;;;5015634;28;20209;-87
2021/01/24 05:16:20;;;;;;;5.82;3.67;;;;;;;;;;5036658;28;20281;-87
2021/01/24 05:18:55;;;;;;;7.50;4.75;;;;;;;;;;5027867;28;20178;-87
2021/01/24 05:21:21;;;;;;;6.35;4.18;;;;;;;;;;5022367;28;20181;-87
2021/01/24 05:23:48;;;;;;;5.82;3.75;;;;;;;;;;5020799;28;20193;-87
2021/01/24 05:26:14;;;;;;;5.78;5.20;;;;;;;;;;5020364;28;20197;-87
2021/01/24 05:28:47;;;;;;;5.50;4.13;;;;;;;;;;5026901;28;20197;-87
2021/01/24 05:31:13;;;;;;;7.03;4.47;;;;;;;;;;5032290;28;20189;-87
2021/01/24 05:33:43;;;;;;;6.13;4.30;;;;;;;;;;5025014;28;20220;-87
2021/01/24 05:36:09;;;;;;;5.40;3.85;;;;;;;;;;5033940;28;20201;-86
2021/01/24 05:38:35;;;;;;;5.15;3.80;;;;;;;;;;5036103;28;20197;-87
2021/01/24 05:41:01;;;;;;;8.27;4.00;;;;;;;;;;5034861;28;20178;-87
2021/01/24 05:43:33;;;;;;;5.13;4.63;;;;;;;;;;5028076;28;20186;-87
2021/01/24 05:45:59;;;;;;;5.85;3.42;;;;;;;;;;5023191;28;20240;-86
2021/01/24 05:48:25;;;;;;;5.43;3.50;;;;;;;;;;5026536;28;20185;-87
2021/01/24 05:50:52;;;;;;;4.40;3.75;;;;;;;;;;5021929;28;20236;-87
2021/01/24 05:53:18;;;;;;;5.45;3.22;;;;;;;;;;5036836;28;20204;-87
2021/01/24 05:55:45;;;;;;;4.95;3.50;;;;;;;;;;5042746;28;20205;-86
2021/01/24 05:58:24;;;;;;;4.35;3.42;;;;;;;;;;5015893;28;20196;-86
2021/01/24 06:00:52;;;;;;;4.63;3.28;;;;;;;;;;5032718;28;20166;-86
2021/01/24 06:03:18;;;;;;;7.32;4.28;;;;;;;;;;5028998;28;20627;-87
2021/01/24 06:05:44;;;;;;;5.63;4.05;;;;;;;;;;5044147;28;20194;-87
2021/01/24 06:08:11;;;;;;;4.55;3.85;;;;;;;;;;5043538;28;20194;-86
2021/01/24 06:10:37;;;;;;;5.90;4.70;;;;;;;;;;5043109;28;20217;-86
2021/01/24 06:13:04;;;;;;;4.88;3.30;;;;;;;;;;5017878;28;27665;-86
2021/01/24 06:15:30;;;;;;;3.88;3.47;;;;;;;;;;5036978;28;20210;-88
2021/01/24 06:17:57;;;;;;;4.82;3.33;;;;;;;;;;5021537;28;20194;-87
2021/01/24 06:20:25;;;;;;;2.90;2.67;;;;;;;;;;5032817;28;20178;-86
2021/01/24 06:23:08;;;;;;;7.93;3.88;;;;;;;;;;5039429;28;20177;-86
2021/01/24 06:25:36;;;;;;;4.20;2.63;;;;;;;;;;5034049;28;20182;-88
2021/01/24 06:28:16;;;;;;;4.45;3.20;;;;;;;;;;5028533;28;20236;-86
2021/01/24 06:30:44;;;;;;;6.65;3.50;;;;;;;;;;5022837;28;20182;-86
2021/01/24 06:33:28;;;;;;;5.50;3.95;;;;;;;;;;5036407;28;20221;-87
2021/01/24 06:36:04;;;;;;;5.25;3.35;;;;;;;;;;5037267;28;20206;-87
2021/01/24 06:38:37;;;;;;;9.43;3.75;;;;;;;;;;5036164;28;20333;-86
2021/01/24 06:41:04;;;;;;;4.22;3.55;;;;;;;;;;5031012;28;20182;-86
2021/01/24 06:43:49;;;;;;;4.13;3.63;;;;;;;;;;5037558;28;20257;-86
2021/01/24 06:46:24;;;;;;;4.25;2.80;;;;;;;;;;5053877;28;20557;-86
2021/01/24 06:48:51;;;;;;;4.30;3.13;;;;;;;;;;5047923;28;20328;-87
2021/01/24 06:51:32;;;;;;;4.72;3.25;;;;;;;;;;5044487;28;20177;-86
2021/01/24 06:53:59;;;;;;;6.45;4.13;;;;;;;;;;5043464;28;20239;-87
2021/01/24 06:56:26;;;;;;;6.03;3.42;;;;;;;;;;5041150;28;20206;-86
2021/01/24 06:58:52;;;;;;;5.30;3.35;;;;;;;;;;5032729;28;20186;-86
2021/01/24 07:01:22;;;;;;;5.28;3.45;;;;;;;;;;5049807;28;20329;-85
2021/01/24 07:04:08;;;;;;;8.32;4.05;;;;;;;;;;5037105;28;20185;-86
2021/01/24 07:06:37;;;;;;;5.30;3.13;;;;;;;;;;5022288;28;20201;-87
2021/01/24 07:09:23;;;;;;;8.90;3.33;;;;;;;;;;5051879;28;20652;-86
2021/01/24 07:11:55;;;;;;;5.40;3.75;;;;;;;;;;5034761;28;20201;-87
2021/01/24 07:14:36;;;;;;;9.07;3.50;;;;;;;;;;5036012;28;20193;-87
2021/01/24 07:17:04;;;;;;;8.48;3.05;;;;;;;;;;5042949;28;20174;-86
2021/01/24 07:19:30;;;;;;;9.10;3.53;;;;;;;;;;5045564;28;20485;-87
2021/01/24 07:21:57;;;;;;;6.22;3.05;;;;;;;;;;5038784;28;20178;-86
2021/01/24 07:24:23;;;;;;;4.70;3.40;;;;;;;;;;5039146;28;20182;-86
2021/01/24 07:26:49;;;;;;;6.88;3.45;;;;;;;;;;5034643;28;20206;-86
2021/01/24 07:29:17;;;;;;;3.60;3.30;;;;;;;;;;5033222;28;20200;-86
2021/01/24 07:31:43;;;;;;;6.35;3.38;;;;;;;;;;5032016;28;20213;-87
2021/01/24 07:34:10;;;;;;;6.90;4.15;;;;;;;;;;5030825;28;20514;-86
2021/01/24 07:36:35;;;;;;;8.60;4.95;;;;;;;;;;5043911;28;20269;-86
2021/01/24 07:39:01;;;;;;;8.38;4.68;;;;;;;;;;5039859;28;20217;-86
2021/01/24 07:41:27;;;;;;;7.15;5.53;;;;;;;;;;5036368;28;20186;-86
2021/01/24 07:43:53;;;;;;;6.07;5.00;;;;;;;;;;5042152;28;20185;-87
2021/01/24 07:46:22;;;;;;;6.68;4.25;;;;;;;;;;5046021;28;20194;-86
2021/01/24 07:48:48;;;;;;;5.82;4.57;;;;;;;;;;5047206;28;20411;-86
2021/01/24 07:51:14;;;;;;;5.70;4.07;;;;;;;;;;5041181;28;20206;-86
2021/01/24 07:53:40;;;;;;;5.60;4.05;;;;;;;;;;5038809;28;20185;-87
2021/01/24 07:56:06;;;;;;;5.70;4.90;;;;;;;;;;5033978;28;20261;-89
2021/01/24 07:58:32;;;;;;;6.45;3.80;;;;;;;;;;5030916;28;20217;-87
2021/01/24 08:00:58;;;;;;;10.25;4.40;;;;;;;;;;5033426;28;20170;-88
2021/01/24 08:03:26;;;;;;;4.10;3.80;;;;;;;;;;5041954;28;20181;-89
2021/01/24 08:05:52;;;;;;;6.40;3.97;;;;;;;;;;5039277;28;20201;-87
2021/01/24 08:08:18;;;;;;;7.72;5.35;;;;;;;;;;5032274;28;20190;-88
2021/01/24 08:10:44;;;;;;;3.90;3.50;;;;;;;;;;5041235;28;20181;-88
2021/01/24 08:13:10;;;;;;;5.00;3.90;;;;;;;;;;5038578;28;20194;-88
2021/01/24 08:15:36;;;;;;;7.65;5.53;;;;;;;;;;5033856;28;20218;-89
2021/01/24 08:18:03;;;;;;;6.10;4.13;;;;;;;;;;5036904;28;20182;-89
2021/01/24 08:20:29;;;;;;;7.75;4.65;;;;;;;;;;5034904;28;20308;-89
2021/01/24 08:22:55;;;;;;;8.85;5.75;;;;;;;;;;5037951;28;20178;-88
2021/01/24 08:25:22;;;;;;;7.28;5.20;;;;;;;;;;5057609;28;20186;-88
2021/01/24 08:27:48;;;;;;;8.38;5.78;;;;;;;;;;5033727;28;20202;-87
2021/01/24 08:30:15;;;;;;;11.48;6.35;;;;;;;;;;5041626;28;20267;-88
2021/01/24 08:32:42;;;;;;;5.93;5.22;;;;;;;;;;5038383;28;20248;-87
2021/01/24 08:35:09;;;;;;;5.85;5.30;;;;;;;;;;5037378;28;20212;-88
2021/01/24 08:37:35;;;;;;;5.65;4.88;;;;;;;;;;5029328;28;20420;-87
2021/01/24 08:40:02;;;;;;;7.45;4.72;;;;;;;;;;5040791;28;20176;-87
2021/01/24 08:42:42;;;;;;;5.35;4.85;;;;;;;;;;5035339;28;20234;-87
2021/01/24 08:45:09;;;;;;;4.45;3.90;;;;;;;;;;5016675;28;20182;-88
2021/01/24 08:47:35;;;;;;;4.28;3.88;;;;;;;;;;5031667;28;20197;-87
2021/01/24 08:50:05;;;;;;;7.20;4.05;;;;;;;;;;5023112;28;20182;-87
2021/01/24 08:52:31;;;;;;;3.72;3.17;;;;;;;;;;5030134;28;20217;-87
2021/01/24 08:55:01;;;;;;;4.80;3.90;;;;;;;;;;5032231;28;20194;-88
2021/01/24 08:57:31;;;;;;;22.40;14.02;;;;;;;;;;5024215;28;20265;-88
2021/01/24 09:00:10;;;;;;;12.68;7.13;;;;;;;;;;5022933;28;20582;-88
2021/01/24 09:02:40;;;;;;;14.82;9.00;;;;;;;;;;5021875;28;20365;-88
2021/01/24 09:05:10;;;;;;;14.77;8.65;;;;;;;;;;5022105;28;20193;-88
2021/01/24 09:07:36;;;;;;;15.88;8.10;;;;;;;;;;5033386;28;20201;-84
2021/01/24 09:10:15;;;;;;;12.05;7.75;;;;;;;;;;5041857;28;20185;-87
2021/01/24 09:12:43;;;;;;;9.93;6.05;;;;;;;;;;5020237;28;20189;-87
2021/01/24 09:15:09;;;;;;;8.38;6.10;;;;;;;;;;5035396;28;20214;-86
2021/01/24 09:17:35;;;;;;;6.28;4.70;;;;;;;;;;5034236;28;20204;-87
2021/01/24 09:20:01;;;;;;;5.38;3.85;;;;;;;;;;5032654;28;20170;-89
2021/01/24 09:22:27;;;;;;;5.38;3.42;;;;;;;;;;5036804;28;20684;-87
2021/01/24 09:24:53;;;;;;;6.95;3.47;;;;;;;;;;5027963;28;20185;-87
2021/01/24 09:27:19;;;;;;;4.28;3.88;;;;;;;;;;5022738;28;20246;-86
2021/01/24 09:29:45;;;;;;;4.10;3.42;;;;;;;;;;5037906;28;20220;-87
2021/01/24 09:32:11;;;;;;;5.60;2.97;;;;;;;;;;5036567;28;20271;-88
2021/01/24 09:34:37;;;;;;;5.65;2.95;;;;;;;;;;5034103;28;20474;-88
2021/01/24 09:37:04;;;;;;;3.75;2.90;;;;;;;;;;5029378;28;20174;-87
2021/01/24 09:39:29;;;;;;;3.58;2.63;;;;;;;;;;5025560;28;20261;-87
2021/01/24 09:41:56;;;;;;;5.10;3.45;;;;;;;;;;5036955;28;20229;-86
2021/01/24 09:44:22;;;;;;;4.60;2.58;;;;;;;;;;5020519;28;20726;-87
2021/01/24 09:46:48;;;;;;;2.90;2.40;;;;;;;;;;5027727;28;20173;-86
2021/01/24 09:49:14;;;;;;;3.58;2.58;;;;;;;;;;5032683;28;20192;-87
2021/01/24 09:51:40;;;;;;;3.42;2.70;;;;;;;;;;5026779;28;20190;-88
2021/01/24 09:54:06;;;;;;;3.85;2.88;;;;;;;;;;5042475;28;20182;-87
2021/01/24 09:56:32;;;;;;;3.00;2.70;;;;;;;;;;5025059;28;20214;-86
2021/01/24 09:58:58;;;;;;;5.60;2.40;;;;;;;;;;5025976;28;20212;-87
2021/01/24 10:01:25;;;;;;;4.78;3.47;;;;;;;;;;5032324;28;20182;-87
2021/01/24 10:03:51;;;;;;;3.50;3.20;;;;;;;;;;5032206;28;20169;-88
2021/01/24 10:06:18;;;;;;;2.38;2.15;;;;;;;;;;5023710;28;20198;-87
2021/01/24 10:08:45;;;;;;;2.33;2.10;;;;;;;;;;5036440;28;20190;-88
2021/01/24 10:11:11;;;;;;;3.17;2.45;;;;;;;;;;5035922;28;20185;-87
2021/01/24 10:13:37;;;;;;;2.60;2.40;;;;;;;;;;5031212;28;20188;-87
2021/01/24 10:16:03;;;;;;;2.45;2.25;;;;;;;;;;5029105;28;20205;-85
2021/01/24 10:18:30;;;;;;;4.75;2.17;;;;;;;;;;5024591;28;20166;-86
2021/01/24 10:20:56;;;;;;;8.88;2.58;;;;;;;;;;5037835;28;20178;-86
2021/01/24 10:23:23;;;;;;;3.03;2.75;;;;;;;;;;5045837;28;20178;-87
2021/01/24 10:25:49;;;;;;;3.25;2.20;;;;;;;;;;5032530;28;20264;-88
2021/01/24 10:28:16;;;;;;;4.60;2.83;;;;;;;;;;5030798;28;20193;-86
2021/01/24 10:30:42;;;;;;;5.07;2.90;;;;;;;;;;5023671;28;20194;-86
2021/01/24 10:33:08;;;;;;;3.25;2.17;;;;;;;;;;5037192;28;20256;-86
2021/01/24 10:35:34;;;;;;;4.78;3.40;;;;;;;;;;5024389;28;20248;-88
2021/01/24 10:38:00;;;;;;;6.43;3.70;;;;;;;;;;5015617;28;20225;-87
2021/01/24 10:40:26;;;;;;;8.57;3.63;;;;;;;;;;5031731;28;20178;-85
2021/01/24 10:42:52;;;;;;;3.70;3.35;;;;;;;;;;5044871;28;20190;-87
2021/01/24 10:45:18;;;;;;;4.07;3.50;;;;;;;;;;5027083;28;20173;-88
2021/01/24 10:47:44;;;;;;;5.22;3.40;;;;;;;;;;5038856;28;20190;-87
2021/01/24 10:50:10;;;;;;;3.88;3.20;;;;;;;;;;5034549;28;20212;-87
2021/01/24 10:52:36;;;;;;;5.78;3.83;;;;;;;;;;5032515;28;20196;-84
2021/01/24 10:55:05;;;;;;;4.13;3.72;;;;;;;;;;5028871;28;20217;-87
2021/01/24 10:57:31;;;;;;;4.80;3.30;;;;;;;;;;5023809;28;20189;-87
2021/01/24 10:59:57;;;;;;;6.72;3.85;;;;;;;;;;5036112;28;20185;-87
2021/01/24 11:02:24;;;;;;;6.97;5.30;;;;;;;;;;5037122;28;20190;-87
2021/01/24 11:04:49;;;;;;;5.50;4.35;;;;;;;;;;5036245;28;20212;-87
2021/01/24 11:07:15;;;;;;;3.97;3.45;;;;;;;;;;5024684;28;20190;-86
2021/01/24 11:09:41;;;;;;;9.00;4.70;;;;;;;;;;5035608;28;20187;-87
2021/01/24 11:12:08;;;;;;;10.98;5.10;;;;;;;;;;5025849;28;20281;-88
2021/01/24 11:14:35;;;;;;;5.55;3.92;;;;;;;;;;5025577;28;20272;-87
2021/01/24 11:17:01;;;;;;;6.50;4.35;;;;;;;;;;5024135;28;20185;-87
2021/01/24 11:19:27;;;;;;;10.95;4.30;;;;;;;;;;5017556;28;20190;-88
2021/01/24 11:21:53;;;;;;;6.23;3.90;;;;;;;;;;5016599;28;20178;-86
2021/01/24 11:24:19;;;;;;;4.03;3.60;;;;;;;;;;5039113;28;20433;-89
2021/01/24 11:26:45;;;;;;;4.10;3.70;;;;;;;;;;5035821;28;20186;-88
2021/01/24 11:29:11;;;;;;;9.45;4.50;;;;;;;;;;5022083;28;20193;-87
2021/01/24 11:31:37;;;;;;;7.00;4.00;;;;;;;;;;5040899;28;20393;-86
2021/01/24 11:34:03;;;;;;;7.22;4.90;;;;;;;;;;5038608;28;20527;-87
2021/01/24 11:36:29;;;;;;;6.95;4.97;;;;;;;;;;5023390;28;20210;-89
2021/01/24 11:38:55;;;;;;;6.82;4.72;;;;;;;;;;5035063;28;20189;-90
2021/01/24 11:41:21;;;;;;;5.82;4.70;;;;;;;;;;5017374;28;20182;-85
2021/01/24 11:43:47;;;;;;;10.05;4.95;;;;;;;;;;5030491;28;20216;-87
2021/01/24 11:46:13;;;;;;;6.55;3.83;;;;;;;;;;5037188;28;20662;-85
2021/01/24 11:48:39;;;;;;;5.75;4.50;;;;;;;;;;5023201;28;20198;-86
2021/01/24 11:51:05;;;;;;;4.60;3.80;;;;;;;;;;5035464;28;20217;-85
2021/01/24 11:53:31;;;;;;;6.10;4.18;;;;;;;;;;5016221;28;20193;-85
2021/01/24 11:55:57;;;;;;;6.57;4.93;;;;;;;;;;5031713;28;20221;-86
2021/01/24 11:58:26;;;;;;;8.70;4.40;;;;;;;;;;5015801;28;20183;-85
2021/01/24 12:00:52;;;;;;;9.07;6.03;;;;;;;;;;5033588;28;20170;-84
2021/01/24 12:03:18;;;;;;;8.80;7.30;;;;;;;;;;5022417;28;20245;-85
2021/01/24 12:05:44;;;;;;;11.50;7.40;;;;;;;;;;5034198;28;20197;-86
2021/01/24 12:08:10;;;;;;;15.57;8.60;;;;;;;;;;5022660;28;20182;-86
2021/01/24 12:10:42;;;;;;;9.70;7.60;;;;;;;;;;5029761;28;20554;-89
2021/01/24 12:13:08;;;;;;;11.50;7.80;;;;;;;;;;5015114;28;20206;-91
2021/01/24 12:15:34;;;;;;;13.98;7.55;;;;;;;;;;5023243;28;20253;-88
2021/01/24 12:18:00;;;;;;;10.55;5.93;;;;;;;;;;5033651;28;20175;-86
2021/01/24 12:20:26;;;;;;;10.73;6.60;;;;;;;;;;5029443;28;20259;-84
2021/01/24 12:22:52;;;;;;;10.32;6.88;;;;;;;;;;5041701;28;20178;-82
2021/01/24 12:25:18;;;;;;;14.77;8.02;;;;;;;;;;5039197;28;20682;-82
2021/01/24 12:27:44;;;;;;;9.68;8.65;;;;;;;;;;5036541;28;20228;-82
2021/01/24 12:30:11;;;;;;;9.00;8.10;;;;;;;;;;5036274;28;20719;-83
2021/01/24 12:32:37;;;;;;;13.70;8.48;;;;;;;;;;5025423;28;20230;-83
2021/01/24 12:35:03;;;;;;;12.82;7.85;;;;;;;;;;4998618;28;20225;-86
2021/01/24 12:37:29;;;;;;;4.40;4.00;;;;;;;;;;5000956;28;20187;-84
2021/01/24 12:39:56;;;;;;;7.85;5.78;;;;;;;;;;5010035;28;20262;-83
2021/01/24 12:42:22;;;;;;;7.25;5.85;;;;;;;;;;5003466;28;20186;-85
2021/01/24 12:44:48;;;;;;;7.30;5.25;;;;;;;;;;5016684;28;20195;-83
2021/01/24 12:47:14;;;;;;;5.82;4.82;;;;;;;;;;5018614;28;20252;-84
2021/01/24 12:49:40;;;;;;;8.18;6.13;;;;;;;;;;4998122;28;20197;-85
2021/01/24 12:52:06;;;;;;;8.88;5.80;;;;;;;;;;5019036;28;20281;-87
2021/01/24 12:54:33;;;;;;;9.20;5.72;;;;;;;;;;5016470;28;20194;-87
2021/01/24 12:56:58;;;;;;;7.20;6.30;;;;;;;;;;5019405;28;20210;-85
2021/01/24 12:59:25;;;;;;;9.07;7.60;;;;;;;;;;5018927;28;20197;-83
2021/01/24 13:01:54;;;;;;;8.40;5.55;;;;;;;;;;5000523;28;20178;-83
2021/01/24 13:04:20;;;;;;;17.65;6.55;;;;;;;;;;5005970;28;20179;-82
2021/01/24 13:06:46;;;;;;;5.30;4.38;;;;;;;;;;5012956;28;20182;-80
2021/01/24 13:09:12;;;;;;;6.28;4.07;;;;;;;;;;5019792;28;20535;-84
2021/01/24 13:11:37;;;;;;;4.28;3.72;;;;;;;;;;5019388;28;20182;-86
2021/01/24 13:14:03;;;;;;;5.73;4.47;;;;;;;;;;4995288;28;20182;-85
2021/01/24 13:16:29;;;;;;;8.20;6.75;;;;;;;;;;5003917;28;20477;-84
2021/01/24 13:18:55;;;;;;;8.65;6.90;;;;;;;;;;5005162;28;20186;-82
2021/01/24 13:21:21;;;;;;;8.30;5.50;;;;;;;;;;5013561;28;20191;-80
2021/01/24 13:23:47;;;;;;;6.90;4.93;;;;;;;;;;5005499;28;20278;-84
2021/01/24 13:26:13;;;;;;;4.20;3.90;;;;;;;;;;5003010;28;20182;-80
2021/01/24 13:28:39;;;;;;;6.07;5.40;;;;;;;;;;5008733;28;20249;-82
2021/01/24 13:31:05;;;;;;;4.88;4.07;;;;;;;;;;4993393;28;20207;-86
2021/01/24 13:33:31;;;;;;;5.35;4.75;;;;;;;;;;5011072;28;20668;-81
2021/01/24 13:35:57;;;;;;;6.88;3.88;;;;;;;;;;5018254;28;20213;-81
2021/01/24 13:38:23;;;;;;;5.55;4.85;;;;;;;;;;5032408;28;20181;-82
2021/01/24 13:40:50;;;;;;;6.95;5.57;;;;;;;;;;5029270;28;20201;-82
2021/01/24 13:43:16;;;;;;;5.15;4.65;;;;;;;;;;5025048;28;20186;-82
2021/01/24 13:45:42;;;;;;;5.30;4.80;;;;;;;;;;5031516;28;20677;-81
2021/01/24 13:48:08;;;;;;;9.75;5.15;;;;;;;;;;5033297;28;20182;-81
2021/01/24 13:50:35;;;;;;;8.00;5.10;;;;;;;;;;5022912;28;20188;-81
2021/01/24 13:53:01;;;;;;;8.30;5.88;;;;;;;;;;5021692;28;20197;-81
2021/01/24 13:55:27;;;;;;;8.80;5.55;;;;;;;;;;5038468;28;20274;-81
2021/01/24 13:57:53;;;;;;;10.98;5.93;;;;;;;;;;5024145;28;20186;-81
2021/01/24 14:00:19;;;;;;;6.50;5.07;;;;;;;;;;5023393;28;20177;-82
2021/01/24 14:02:45;;;;;;;7.38;4.13;;;;;;;;;;5018445;28;20462;-81
2021/01/24 14:05:11;;;;;;;11.20;3.70;;;;;;;;;;5020976;28;20178;-83
2021/01/24 14:07:37;;;;;;;5.70;4.93;;;;;;;;;;5036766;28;20472;-82
2021/01/24 14:10:03;;;;;;;5.70;4.15;;;;;;;;;;5023005;28;20546;-84
2021/01/24 14:12:29;;;;;;;7.18;5.63;;;;;;;;;;5021994;28;20194;-82
2021/01/24 14:14:58;;;;;;;6.40;4.90;;;;;;;;;;5037512;28;20319;-82
2021/01/24 14:17:24;;;;;;;7.97;6.05;;;;;;;;;;5018300;28;20178;-83
2021/01/24 14:19:50;;;;;;;6.32;5.72;;;;;;;;;;5029832;28;20255;-81
2021/01/24 14:22:16;;;;;;;7.25;6.22;;;;;;;;;;5032229;28;20696;-83
2021/01/24 14:24:43;;;;;;;7.40;6.30;;;;;;;;;;5028728;28;20276;-82
2021/01/24 14:27:09;;;;;;;7.07;5.20;;;;;;;;;;5021408;28;20259;-82
2021/01/24 14:29:35;;;;;;;8.65;6.55;;;;;;;;;;5024412;28;20190;-82
2021/01/24 14:32:01;;;;;;;9.05;6.47;;;;;;;;;;5040704;28;20725;-84
2021/01/24 14:34:27;;;;;;;9.45;6.55;;;;;;;;;;5028521;28;20187;-82
2021/01/24 14:36:53;;;;;;;10.88;7.63;;;;;;;;;;5043512;28;20181;-83
2021/01/24 14:39:19;;;;;;;10.60;8.07;;;;;;;;;;5021414;28;20225;-83